sensor_id;sensor_type;location;lat;lon;timestamp;P1;durP1;ratioP1;P2;durP2;ratioP2
2684;SDS011;1352;48.446;9.156;2022-09-13T00:02:16;2.20;;;2.10;;
2684;SDS011;1352;48.446;9.156;2022-09-13T00:04:45;2.70;;;2.40;;
2684;SDS011;1352;48.446;9.156;2022-09-13T00:07:12;2.67;;;2.47;;
2684;SDS011;1352;48.446;9.156;2022-09-13T00:09:39;2.10;;;2.00;;
2684;SDS011;1352;48.446;9.156;2022-09-13T00:12:06;2.60;;;2.40;;
2684;SDS011;1352;48.446;9.156;2022-09-13T00:14:33;1.80;;;1.70;;
2684;SDS011;1352;48.446;9.156;2022-09-13T00:17:00;1.70;;;1.60;;
2684;SDS011;1352;48.446;9.156;2022-09-13T00:19:27;3.13;;;1.90;;
2684;SDS011;1352;48.446;9.156;2022-09-13T00:21:55;2.13;;;1.93;;
2684;SDS011;1352;48.446;9.156;2022-09-13T00:24:23;1.87;;;1.77;;
2684;SDS011;1352;48.446;9.156;2022-09-13T00:26:50;2.07;;;1.87;;
2684;SDS011;1352;48.446;9.156;2022-09-13T00:29:17;1.90;;;1.80;;
2684;SDS011;1352;48.446;9.156;2022-09-13T00:31:44;2.23;;;1.73;;
2684;SDS011;1352;48.446;9.156;2022-09-13T00:34:11;2.97;;;1.77;;
2684;SDS011;1352;48.446;9.156;2022-09-13T00:36:38;2.43;;;1.93;;
2684;SDS011;1352;48.446;9.156;2022-09-13T00:39:07;2.60;;;2.40;;
2684;SDS011;1352;48.446;9.156;2022-09-13T00:41:35;2.00;;;1.83;;
2684;SDS011;1352;48.446;9.156;2022-09-13T00:44:02;2.10;;;2.00;;
2684;SDS011;1352;48.446;9.156;2022-09-13T00:46:32;4.90;;;2.27;;
2684;SDS011;1352;48.446;9.156;2022-09-13T00:49:06;2.27;;;2.07;;
2684;SDS011;1352;48.446;9.156;2022-09-13T00:51:41;2.33;;;2.20;;
2684;SDS011;1352;48.446;9.156;2022-09-13T00:54:13;2.93;;;2.00;;
2684;SDS011;1352;48.446;9.156;2022-09-13T00:56:42;3.03;;;2.10;;
2684;SDS011;1352;48.446;9.156;2022-09-13T00:59:16;3.40;;;2.10;;
2684;SDS011;1352;48.446;9.156;2022-09-13T01:01:50;3.97;;;2.47;;
2684;SDS011;1352;48.446;9.156;2022-09-13T01:04:21;1.90;;;1.80;;
2684;SDS011;1352;48.446;9.156;2022-09-13T01:06:51;2.67;;;1.80;;
2684;SDS011;1352;48.446;9.156;2022-09-13T01:09:23;5.33;;;2.60;;
2684;SDS011;1352;48.446;9.156;2022-09-13T01:11:51;3.07;;;2.20;;
2684;SDS011;1352;48.446;9.156;2022-09-13T01:14:28;2.60;;;2.40;;
2684;SDS011;1352;48.446;9.156;2022-09-13T01:16:57;1.93;;;1.83;;
2684;SDS011;1352;48.446;9.156;2022-09-13T01:19:25;2.33;;;2.13;;
2684;SDS011;1352;48.446;9.156;2022-09-13T01:28:19;2.30;;;2.20;;
2684;SDS011;1352;48.446;9.156;2022-09-13T01:31:05;2.37;;;2.17;;
2684;SDS011;1352;48.446;9.156;2022-09-13T01:33:37;2.50;;;2.30;;
2684;SDS011;1352;48.446;9.156;2022-09-13T01:36:18;2.30;;;2.00;;
2684;SDS011;1352;48.446;9.156;2022-09-13T01:39:09;2.70;;;2.43;;
2684;SDS011;1352;48.446;9.156;2022-09-13T01:41:56;2.30;;;2.20;;
2684;SDS011;1352;48.446;9.156;2022-09-13T01:44:35;2.43;;;2.23;;
2684;SDS011;1352;48.446;9.156;2022-09-13T01:47:16;2.23;;;2.03;;
2684;SDS011;1352;48.446;9.156;2022-09-13T01:49:52;2.27;;;2.07;;
2684;SDS011;1352;48.446;9.156;2022-09-13T01:52:28;2.37;;;2.17;;
2684;SDS011;1352;48.446;9.156;2022-09-13T01:55:04;2.80;;;2.60;;
2684;SDS011;1352;48.446;9.156;2022-09-13T01:57:35;2.63;;;2.43;;
2684;SDS011;1352;48.446;9.156;2022-09-13T02:00:10;1.93;;;1.83;;
2684;SDS011;1352;48.446;9.156;2022-09-13T02:02:40;1.93;;;1.83;;
2684;SDS011;1352;48.446;9.156;2022-09-13T02:05:12;5.70;;;2.40;;
2684;SDS011;1352;48.446;9.156;2022-09-13T02:07:44;3.00;;;2.70;;
2684;SDS011;1352;48.446;9.156;2022-09-13T02:10:19;2.47;;;2.27;;
2684;SDS011;1352;48.446;9.156;2022-09-13T02:12:49;2.80;;;2.67;;
2684;SDS011;1352;48.446;9.156;2022-09-13T02:15:20;2.70;;;2.50;;
2684;SDS011;1352;48.446;9.156;2022-09-13T02:17:53;2.80;;;2.60;;
2684;SDS011;1352;48.446;9.156;2022-09-13T02:20:31;2.93;;;2.47;;
2684;SDS011;1352;48.446;9.156;2022-09-13T02:23:03;2.53;;;2.33;;
2684;SDS011;1352;48.446;9.156;2022-09-13T02:25:34;2.63;;;2.53;;
2684;SDS011;1352;48.446;9.156;2022-09-13T02:28:06;2.80;;;2.60;;
2684;SDS011;1352;48.446;9.156;2022-09-13T02:30:39;3.40;;;2.53;;
2684;SDS011;1352;48.446;9.156;2022-09-13T02:33:10;2.87;;;2.67;;
2684;SDS011;1352;48.446;9.156;2022-09-13T02:35:44;3.47;;;3.17;;
2684;SDS011;1352;48.446;9.156;2022-09-13T02:38:21;3.50;;;3.30;;
2684;SDS011;1352;48.446;9.156;2022-09-13T02:40:54;3.27;;;3.07;;
2684;SDS011;1352;48.446;9.156;2022-09-13T02:43:26;2.80;;;2.60;;
2684;SDS011;1352;48.446;9.156;2022-09-13T02:46:02;2.90;;;2.70;;
2684;SDS011;1352;48.446;9.156;2022-09-13T02:48:44;5.30;;;3.27;;
2684;SDS011;1352;48.446;9.156;2022-09-13T02:51:22;3.40;;;3.10;;
2684;SDS011;1352;48.446;9.156;2022-09-13T02:53:58;3.30;;;3.10;;
2684;SDS011;1352;48.446;9.156;2022-09-13T02:56:37;2.97;;;2.77;;
2684;SDS011;1352;48.446;9.156;2022-09-13T02:59:13;3.77;;;2.97;;
2684;SDS011;1352;48.446;9.156;2022-09-13T03:01:43;4.17;;;2.97;;
2684;SDS011;1352;48.446;9.156;2022-09-13T03:04:16;4.43;;;2.77;;
2684;SDS011;1352;48.446;9.156;2022-09-13T03:06:43;5.60;;;3.23;;
2684;SDS011;1352;48.446;9.156;2022-09-13T03:09:10;6.30;;;3.30;;
2684;SDS011;1352;48.446;9.156;2022-09-13T03:11:45;3.13;;;2.93;;
2684;SDS011;1352;48.446;9.156;2022-09-13T03:14:28;3.00;;;2.80;;
2684;SDS011;1352;48.446;9.156;2022-09-13T03:17:11;2.70;;;2.50;;
2684;SDS011;1352;48.446;9.156;2022-09-13T03:19:47;3.13;;;2.93;;
2684;SDS011;1352;48.446;9.156;2022-09-13T03:22:31;3.10;;;2.90;;
2684;SDS011;1352;48.446;9.156;2022-09-13T03:25:11;4.97;;;2.77;;
2684;SDS011;1352;48.446;9.156;2022-09-13T03:27:50;2.50;;;2.37;;
2684;SDS011;1352;48.446;9.156;2022-09-13T03:30:25;2.80;;;2.60;;
2684;SDS011;1352;48.446;9.156;2022-09-13T03:32:55;3.20;;;2.77;;
2684;SDS011;1352;48.446;9.156;2022-09-13T03:35:31;3.17;;;2.83;;
2684;SDS011;1352;48.446;9.156;2022-09-13T03:38:05;4.27;;;2.67;;
2684;SDS011;1352;48.446;9.156;2022-09-13T03:40:38;3.07;;;2.60;;
2684;SDS011;1352;48.446;9.156;2022-09-13T03:43:11;2.97;;;2.57;;
2684;SDS011;1352;48.446;9.156;2022-09-13T03:45:43;2.97;;;2.67;;
2684;SDS011;1352;48.446;9.156;2022-09-13T03:48:14;4.30;;;3.00;;
2684;SDS011;1352;48.446;9.156;2022-09-13T03:50:45;4.60;;;3.30;;
2684;SDS011;1352;48.446;9.156;2022-09-13T03:53:15;2.90;;;2.70;;
2684;SDS011;1352;48.446;9.156;2022-09-13T03:55:46;3.73;;;2.67;;
2684;SDS011;1352;48.446;9.156;2022-09-13T03:58:14;3.23;;;3.03;;
2684;SDS011;1352;48.446;9.156;2022-09-13T04:00:42;4.67;;;2.70;;
2684;SDS011;1352;48.446;9.156;2022-09-13T04:03:10;2.57;;;2.47;;
2684;SDS011;1352;48.446;9.156;2022-09-13T04:05:38;2.87;;;2.67;;
2684;SDS011;1352;48.446;9.156;2022-09-13T04:08:06;3.23;;;3.03;;
2684;SDS011;1352;48.446;9.156;2022-09-13T04:10:34;3.60;;;3.30;;
2684;SDS011;1352;48.446;9.156;2022-09-13T04:13:02;3.10;;;2.83;;
2684;SDS011;1352;48.446;9.156;2022-09-13T04:15:30;2.80;;;2.57;;
2684;SDS011;1352;48.446;9.156;2022-09-13T04:17:57;2.53;;;2.33;;
2684;SDS011;1352;48.446;9.156;2022-09-13T04:20:25;3.07;;;2.87;;
2684;SDS011;1352;48.446;9.156;2022-09-13T04:22:52;2.80;;;2.60;;
2684;SDS011;1352;48.446;9.156;2022-09-13T04:25:21;2.90;;;2.70;;
2684;SDS011;1352;48.446;9.156;2022-09-13T04:27:52;2.60;;;2.40;;
2684;SDS011;1352;48.446;9.156;2022-09-13T04:30:20;3.00;;;2.80;;
2684;SDS011;1352;48.446;9.156;2022-09-13T04:32:47;2.97;;;2.77;;
2684;SDS011;1352;48.446;9.156;2022-09-13T04:35:14;2.60;;;2.40;;
2684;SDS011;1352;48.446;9.156;2022-09-13T04:37:43;2.80;;;2.60;;
2684;SDS011;1352;48.446;9.156;2022-09-13T04:40:11;2.90;;;2.70;;
2684;SDS011;1352;48.446;9.156;2022-09-13T04:42:41;6.00;;;2.70;;
2684;SDS011;1352;48.446;9.156;2022-09-13T04:45:10;2.77;;;2.57;;
2684;SDS011;1352;48.446;9.156;2022-09-13T04:47:37;4.20;;;2.80;;
2684;SDS011;1352;48.446;9.156;2022-09-13T04:50:04;2.90;;;2.60;;
2684;SDS011;1352;48.446;9.156;2022-09-13T04:52:31;3.17;;;2.97;;
2684;SDS011;1352;48.446;9.156;2022-09-13T04:54:59;3.10;;;2.80;;
2684;SDS011;1352;48.446;9.156;2022-09-13T04:57:27;2.60;;;2.40;;
2684;SDS011;1352;48.446;9.156;2022-09-13T04:59:55;2.93;;;2.73;;
2684;SDS011;1352;48.446;9.156;2022-09-13T05:02:22;2.90;;;2.70;;
2684;SDS011;1352;48.446;9.156;2022-09-13T05:04:49;3.80;;;2.90;;
2684;SDS011;1352;48.446;9.156;2022-09-13T05:07:16;3.17;;;2.97;;
2684;SDS011;1352;48.446;9.156;2022-09-13T05:09:43;2.70;;;2.50;;
2684;SDS011;1352;48.446;9.156;2022-09-13T05:12:10;6.07;;;3.50;;
2684;SDS011;1352;48.446;9.156;2022-09-13T05:14:37;2.90;;;2.70;;
2684;SDS011;1352;48.446;9.156;2022-09-13T05:17:06;3.60;;;3.00;;
2684;SDS011;1352;48.446;9.156;2022-09-13T05:19:33;3.67;;;3.37;;
2684;SDS011;1352;48.446;9.156;2022-09-13T05:22:00;3.50;;;3.20;;
2684;SDS011;1352;48.446;9.156;2022-09-13T05:24:28;3.93;;;2.90;;
2684;SDS011;1352;48.446;9.156;2022-09-13T05:26:55;5.30;;;3.40;;
2684;SDS011;1352;48.446;9.156;2022-09-13T05:29:22;2.93;;;2.70;;
2684;SDS011;1352;48.446;9.156;2022-09-13T05:31:49;3.97;;;2.83;;
2684;SDS011;1352;48.446;9.156;2022-09-13T05:34:17;3.53;;;2.63;;
2684;SDS011;1352;48.446;9.156;2022-09-13T05:36:45;3.63;;;2.60;;
2684;SDS011;1352;48.446;9.156;2022-09-13T05:39:15;3.70;;;3.33;;
2684;SDS011;1352;48.446;9.156;2022-09-13T05:41:43;3.80;;;3.50;;
2684;SDS011;1352;48.446;9.156;2022-09-13T05:44:10;5.40;;;3.50;;
2684;SDS011;1352;48.446;9.156;2022-09-13T05:46:37;3.70;;;3.40;;
2684;SDS011;1352;48.446;9.156;2022-09-13T05:49:04;3.50;;;3.17;;
2684;SDS011;1352;48.446;9.156;2022-09-13T05:51:33;3.53;;;3.10;;
2684;SDS011;1352;48.446;9.156;2022-09-13T05:54:00;3.13;;;2.80;;
2684;SDS011;1352;48.446;9.156;2022-09-13T05:56:27;3.83;;;3.40;;
2684;SDS011;1352;48.446;9.156;2022-09-13T05:58:56;3.37;;;3.07;;
2684;SDS011;1352;48.446;9.156;2022-09-13T06:01:24;4.23;;;3.10;;
2684;SDS011;1352;48.446;9.156;2022-09-13T06:03:52;3.20;;;2.90;;
2684;SDS011;1352;48.446;9.156;2022-09-13T06:06:21;4.27;;;3.60;;
2684;SDS011;1352;48.446;9.156;2022-09-13T06:08:52;6.43;;;3.07;;
2684;SDS011;1352;48.446;9.156;2022-09-13T06:11:19;3.00;;;2.80;;
2684;SDS011;1352;48.446;9.156;2022-09-13T06:13:47;3.10;;;2.90;;
2684;SDS011;1352;48.446;9.156;2022-09-13T06:16:14;7.03;;;2.90;;
2684;SDS011;1352;48.446;9.156;2022-09-13T06:18:41;6.50;;;2.43;;
2684;SDS011;1352;48.446;9.156;2022-09-13T06:21:09;5.50;;;2.93;;
2684;SDS011;1352;48.446;9.156;2022-09-13T06:23:41;5.17;;;3.60;;
2684;SDS011;1352;48.446;9.156;2022-09-13T06:26:11;5.20;;;3.60;;
2684;SDS011;1352;48.446;9.156;2022-09-13T06:28:40;5.33;;;3.47;;
2684;SDS011;1352;48.446;9.156;2022-09-13T06:31:08;3.33;;;3.10;;
2684;SDS011;1352;48.446;9.156;2022-09-13T06:33:37;4.47;;;3.53;;
2684;SDS011;1352;48.446;9.156;2022-09-13T06:36:07;4.80;;;3.90;;
2684;SDS011;1352;48.446;9.156;2022-09-13T06:38:37;5.50;;;3.37;;
2684;SDS011;1352;48.446;9.156;2022-09-13T06:41:05;5.17;;;3.40;;
2684;SDS011;1352;48.446;9.156;2022-09-13T06:43:36;8.83;;;3.87;;
2684;SDS011;1352;48.446;9.156;2022-09-13T06:46:04;8.47;;;4.23;;
2684;SDS011;1352;48.446;9.156;2022-09-13T06:48:35;4.57;;;3.10;;
2684;SDS011;1352;48.446;9.156;2022-09-13T06:51:04;4.10;;;2.97;;
2684;SDS011;1352;48.446;9.156;2022-09-13T06:53:33;5.13;;;2.90;;
2684;SDS011;1352;48.446;9.156;2022-09-13T06:56:01;5.30;;;3.00;;
2684;SDS011;1352;48.446;9.156;2022-09-13T06:58:30;3.43;;;3.13;;
2684;SDS011;1352;48.446;9.156;2022-09-13T07:01:07;4.43;;;2.80;;
2684;SDS011;1352;48.446;9.156;2022-09-13T07:03:38;3.83;;;3.47;;
2684;SDS011;1352;48.446;9.156;2022-09-13T07:06:07;2.63;;;2.43;;
2684;SDS011;1352;48.446;9.156;2022-09-13T07:08:36;3.77;;;3.47;;
2684;SDS011;1352;48.446;9.156;2022-09-13T07:11:04;2.87;;;2.37;;
2684;SDS011;1352;48.446;9.156;2022-09-13T07:13:31;3.20;;;2.90;;
2684;SDS011;1352;48.446;9.156;2022-09-13T07:16:00;3.77;;;3.30;;
2684;SDS011;1352;48.446;9.156;2022-09-13T07:18:29;6.93;;;3.67;;
2684;SDS011;1352;48.446;9.156;2022-09-13T07:21:00;5.87;;;3.50;;
2684;SDS011;1352;48.446;9.156;2022-09-13T07:23:29;3.57;;;2.67;;
2684;SDS011;1352;48.446;9.156;2022-09-13T07:25:57;5.33;;;2.90;;
2684;SDS011;1352;48.446;9.156;2022-09-13T07:28:29;6.33;;;3.10;;
2684;SDS011;1352;48.446;9.156;2022-09-13T07:31:03;2.80;;;2.60;;
2684;SDS011;1352;48.446;9.156;2022-09-13T07:33:32;10.73;;;2.93;;
2684;SDS011;1352;48.446;9.156;2022-09-13T07:36:00;4.60;;;2.70;;
2684;SDS011;1352;48.446;9.156;2022-09-13T07:38:31;4.23;;;2.43;;
2684;SDS011;1352;48.446;9.156;2022-09-13T07:40:59;2.73;;;2.53;;
2684;SDS011;1352;48.446;9.156;2022-09-13T07:43:26;3.97;;;2.20;;
2684;SDS011;1352;48.446;9.156;2022-09-13T07:45:57;3.70;;;2.60;;
2684;SDS011;1352;48.446;9.156;2022-09-13T07:48:27;2.70;;;2.50;;
2684;SDS011;1352;48.446;9.156;2022-09-13T07:50:59;2.97;;;2.60;;
2684;SDS011;1352;48.446;9.156;2022-09-13T07:53:28;4.53;;;2.53;;
2684;SDS011;1352;48.446;9.156;2022-09-13T07:55:59;3.03;;;2.47;;
2684;SDS011;1352;48.446;9.156;2022-09-13T07:58:28;3.10;;;2.10;;
2684;SDS011;1352;48.446;9.156;2022-09-13T08:00:56;2.30;;;2.10;;
2684;SDS011;1352;48.446;9.156;2022-09-13T08:03:30;3.67;;;2.33;;
2684;SDS011;1352;48.446;9.156;2022-09-13T08:06:00;4.57;;;2.47;;
2684;SDS011;1352;48.446;9.156;2022-09-13T08:08:27;4.80;;;2.17;;
2684;SDS011;1352;48.446;9.156;2022-09-13T08:10:54;2.40;;;2.20;;
2684;SDS011;1352;48.446;9.156;2022-09-13T08:13:22;2.93;;;1.80;;
2684;SDS011;1352;48.446;9.156;2022-09-13T08:15:49;2.47;;;2.20;;
2684;SDS011;1352;48.446;9.156;2022-09-13T08:18:16;3.30;;;2.37;;
2684;SDS011;1352;48.446;9.156;2022-09-13T08:20:44;2.37;;;1.90;;
2684;SDS011;1352;48.446;9.156;2022-09-13T08:23:13;2.23;;;2.03;;
2684;SDS011;1352;48.446;9.156;2022-09-13T08:25:40;1.73;;;1.63;;
2684;SDS011;1352;48.446;9.156;2022-09-13T08:28:07;2.87;;;1.80;;
2684;SDS011;1352;48.446;9.156;2022-09-13T08:30:36;2.07;;;1.40;;
2684;SDS011;1352;48.446;9.156;2022-09-13T08:33:03;1.53;;;1.40;;
2684;SDS011;1352;48.446;9.156;2022-09-13T08:35:31;2.00;;;1.63;;
2684;SDS011;1352;48.446;9.156;2022-09-13T08:37:59;1.80;;;1.70;;
2684;SDS011;1352;48.446;9.156;2022-09-13T08:40:29;1.70;;;1.50;;
2684;SDS011;1352;48.446;9.156;2022-09-13T08:43:01;3.33;;;2.00;;
2684;SDS011;1352;48.446;9.156;2022-09-13T08:45:32;2.00;;;1.80;;
2684;SDS011;1352;48.446;9.156;2022-09-13T08:48:00;4.47;;;2.00;;
2684;SDS011;1352;48.446;9.156;2022-09-13T08:50:32;2.70;;;1.87;;
2684;SDS011;1352;48.446;9.156;2022-09-13T08:53:16;3.60;;;2.00;;
2684;SDS011;1352;48.446;9.156;2022-09-13T08:55:50;1.80;;;1.70;;
2684;SDS011;1352;48.446;9.156;2022-09-13T08:58:29;1.37;;;1.27;;
2684;SDS011;1352;48.446;9.156;2022-09-13T09:01:04;2.73;;;1.90;;
2684;SDS011;1352;48.446;9.156;2022-09-13T09:03:37;1.20;;;1.10;;
2684;SDS011;1352;48.446;9.156;2022-09-13T09:06:11;3.60;;;1.93;;
2684;SDS011;1352;48.446;9.156;2022-09-13T09:08:42;2.83;;;2.63;;
2684;SDS011;1352;48.446;9.156;2022-09-13T09:11:18;5.73;;;3.20;;
2684;SDS011;1352;48.446;9.156;2022-09-13T09:13:50;3.53;;;2.77;;
2684;SDS011;1352;48.446;9.156;2022-09-13T09:16:26;3.40;;;2.50;;
2684;SDS011;1352;48.446;9.156;2022-09-13T09:19:02;4.70;;;2.90;;
2684;SDS011;1352;48.446;9.156;2022-09-13T09:21:39;3.90;;;3.60;;
2684;SDS011;1352;48.446;9.156;2022-09-13T09:24:08;3.13;;;2.83;;
2684;SDS011;1352;48.446;9.156;2022-09-13T09:26:44;3.30;;;3.00;;
2684;SDS011;1352;48.446;9.156;2022-09-13T09:29:14;4.20;;;2.37;;
2684;SDS011;1352;48.446;9.156;2022-09-13T09:31:48;2.50;;;2.27;;
2684;SDS011;1352;48.446;9.156;2022-09-13T09:34:32;2.43;;;2.23;;
2684;SDS011;1352;48.446;9.156;2022-09-13T09:37:11;2.87;;;2.63;;
2684;SDS011;1352;48.446;9.156;2022-09-13T09:39:45;2.40;;;2.20;;
2684;SDS011;1352;48.446;9.156;2022-09-13T09:42:15;3.80;;;3.20;;
2684;SDS011;1352;48.446;9.156;2022-09-13T09:44:45;4.73;;;2.60;;
2684;SDS011;1352;48.446;9.156;2022-09-13T09:47:20;3.80;;;2.10;;
2684;SDS011;1352;48.446;9.156;2022-09-13T09:49:53;2.07;;;1.83;;
2684;SDS011;1352;48.446;9.156;2022-09-13T09:52:38;1.80;;;1.70;;
2684;SDS011;1352;48.446;9.156;2022-09-13T09:55:11;5.13;;;2.20;;
2684;SDS011;1352;48.446;9.156;2022-09-13T09:57:51;3.30;;;1.97;;
2684;SDS011;1352;48.446;9.156;2022-09-13T10:00:21;3.80;;;2.57;;
2684;SDS011;1352;48.446;9.156;2022-09-13T10:02:50;6.37;;;2.00;;
2684;SDS011;1352;48.446;9.156;2022-09-13T10:05:20;5.37;;;2.90;;
2684;SDS011;1352;48.446;9.156;2022-09-13T10:07:54;4.03;;;2.57;;
2684;SDS011;1352;48.446;9.156;2022-09-13T10:10:24;4.17;;;3.10;;
2684;SDS011;1352;48.446;9.156;2022-09-13T10:12:58;8.33;;;3.17;;
2684;SDS011;1352;48.446;9.156;2022-09-13T10:15:27;2.27;;;2.07;;
2684;SDS011;1352;48.446;9.156;2022-09-13T10:17:59;3.30;;;2.00;;
2684;SDS011;1352;48.446;9.156;2022-09-13T10:20:29;2.10;;;2.00;;
2684;SDS011;1352;48.446;9.156;2022-09-13T10:26:05;4.80;;;2.83;;
2684;SDS011;1352;48.446;9.156;2022-09-13T10:28:42;4.20;;;3.83;;
2684;SDS011;1352;48.446;9.156;2022-09-13T10:31:12;3.57;;;3.37;;
2684;SDS011;1352;48.446;9.156;2022-09-13T10:33:42;2.13;;;1.70;;
2684;SDS011;1352;48.446;9.156;2022-09-13T10:36:25;2.00;;;1.80;;
2684;SDS011;1352;48.446;9.156;2022-09-13T10:38:56;5.27;;;1.73;;
2684;SDS011;1352;48.446;9.156;2022-09-13T10:41:27;2.63;;;1.83;;
2684;SDS011;1352;48.446;9.156;2022-09-13T10:43:58;4.30;;;2.27;;
2684;SDS011;1352;48.446;9.156;2022-09-13T10:46:27;2.10;;;2.00;;
2684;SDS011;1352;48.446;9.156;2022-09-13T10:48:57;3.30;;;2.00;;
2684;SDS011;1352;48.446;9.156;2022-09-13T10:51:31;1.87;;;1.77;;
2684;SDS011;1352;48.446;9.156;2022-09-13T10:56:50;1.73;;;1.63;;
2684;SDS011;1352;48.446;9.156;2022-09-13T10:59:22;3.50;;;1.97;;
2684;SDS011;1352;48.446;9.156;2022-09-13T11:07:57;1.60;;;1.50;;
2684;SDS011;1352;48.446;9.156;2022-09-13T11:10:38;2.23;;;1.60;;
2684;SDS011;1352;48.446;9.156;2022-09-13T11:13:17;1.67;;;1.40;;
2684;SDS011;1352;48.446;9.156;2022-09-13T11:15:56;3.80;;;1.50;;
2684;SDS011;1352;48.446;9.156;2022-09-13T11:18:40;1.50;;;1.40;;
2684;SDS011;1352;48.446;9.156;2022-09-13T11:21:32;1.63;;;1.53;;
2684;SDS011;1352;48.446;9.156;2022-09-13T11:24:15;2.07;;;1.10;;
2684;SDS011;1352;48.446;9.156;2022-09-13T11:26:57;3.80;;;1.93;;
2684;SDS011;1352;48.446;9.156;2022-09-13T11:29:32;1.60;;;1.50;;
2684;SDS011;1352;48.446;9.156;2022-09-13T11:32:18;2.50;;;2.30;;
2684;SDS011;1352;48.446;9.156;2022-09-13T11:35:11;2.80;;;1.60;;
2684;SDS011;1352;48.446;9.156;2022-09-13T11:37:49;2.30;;;2.10;;
2684;SDS011;1352;48.446;9.156;2022-09-13T11:40:34;2.63;;;1.67;;
2684;SDS011;1352;48.446;9.156;2022-09-13T11:46:09;3.87;;;1.90;;
2684;SDS011;1352;48.446;9.156;2022-09-13T11:48:51;4.83;;;1.50;;
2684;SDS011;1352;48.446;9.156;2022-09-13T11:51:50;5.03;;;2.00;;
2684;SDS011;1352;48.446;9.156;2022-09-13T11:54:32;2.40;;;1.97;;
2684;SDS011;1352;48.446;9.156;2022-09-13T11:57:12;2.00;;;1.90;;
2684;SDS011;1352;48.446;9.156;2022-09-13T11:59:44;6.00;;;2.07;;
2684;SDS011;1352;48.446;9.156;2022-09-13T12:02:17;2.53;;;1.40;;
2684;SDS011;1352;48.446;9.156;2022-09-13T12:04:51;1.93;;;1.83;;
2684;SDS011;1352;48.446;9.156;2022-09-13T12:07:24;7.60;;;2.20;;
2684;SDS011;1352;48.446;9.156;2022-09-13T12:09:59;2.80;;;2.10;;
2684;SDS011;1352;48.446;9.156;2022-09-13T12:12:33;2.13;;;1.90;;
2684;SDS011;1352;48.446;9.156;2022-09-13T12:15:03;2.43;;;2.07;;
2684;SDS011;1352;48.446;9.156;2022-09-13T12:17:34;2.70;;;2.20;;
2684;SDS011;1352;48.446;9.156;2022-09-13T12:20:11;3.13;;;1.90;;
2684;SDS011;1352;48.446;9.156;2022-09-13T12:22:55;2.43;;;1.97;;
2684;SDS011;1352;48.446;9.156;2022-09-13T12:25:27;2.27;;;2.17;;
2684;SDS011;1352;48.446;9.156;2022-09-13T12:28:05;2.47;;;1.67;;
2684;SDS011;1352;48.446;9.156;2022-09-13T12:30:41;1.60;;;1.50;;
2684;SDS011;1352;48.446;9.156;2022-09-13T12:33:13;3.40;;;1.97;;
2684;SDS011;1352;48.446;9.156;2022-09-13T12:35:46;2.83;;;1.97;;
2684;SDS011;1352;48.446;9.156;2022-09-13T12:38:29;3.33;;;2.20;;
2684;SDS011;1352;48.446;9.156;2022-09-13T12:41:25;2.57;;;2.10;;
2684;SDS011;1352;48.446;9.156;2022-09-13T12:44:11;2.40;;;2.20;;
2684;SDS011;1352;48.446;9.156;2022-09-13T12:47:01;5.90;;;1.83;;
2684;SDS011;1352;48.446;9.156;2022-09-13T12:50:07;3.67;;;2.63;;
2684;SDS011;1352;48.446;9.156;2022-09-13T12:52:50;2.03;;;1.90;;
2684;SDS011;1352;48.446;9.156;2022-09-13T12:58:38;3.83;;;2.10;;
2684;SDS011;1352;48.446;9.156;2022-09-13T13:01:19;3.23;;;2.10;;
2684;SDS011;1352;48.446;9.156;2022-09-13T13:03:49;2.20;;;2.00;;
2684;SDS011;1352;48.446;9.156;2022-09-13T13:06:24;2.40;;;1.97;;
2684;SDS011;1352;48.446;9.156;2022-09-13T13:08:59;2.90;;;1.97;;
2684;SDS011;1352;48.446;9.156;2022-09-13T13:11:29;2.93;;;2.27;;
2684;SDS011;1352;48.446;9.156;2022-09-13T13:14:25;2.93;;;1.93;;
2684;SDS011;1352;48.446;9.156;2022-09-13T13:23:21;4.80;;;1.93;;
2684;SDS011;1352;48.446;9.156;2022-09-13T13:25:56;2.80;;;1.73;;
2684;SDS011;1352;48.446;9.156;2022-09-13T13:31:33;5.23;;;1.87;;
2684;SDS011;1352;48.446;9.156;2022-09-13T13:34:02;2.00;;;1.80;;
2684;SDS011;1352;48.446;9.156;2022-09-13T13:36:55;3.17;;;1.87;;
2684;SDS011;1352;48.446;9.156;2022-09-13T13:42:24;2.10;;;1.87;;
2684;SDS011;1352;48.446;9.156;2022-09-13T13:47:53;3.20;;;1.93;;
2684;SDS011;1352;48.446;9.156;2022-09-13T13:53:46;2.23;;;1.60;;
2684;SDS011;1352;48.446;9.156;2022-09-13T13:56:18;2.43;;;1.43;;
2684;SDS011;1352;48.446;9.156;2022-09-13T13:59:00;2.20;;;1.50;;
2684;SDS011;1352;48.446;9.156;2022-09-13T14:01:32;2.70;;;1.63;;
2684;SDS011;1352;48.446;9.156;2022-09-13T14:04:11;1.60;;;1.50;;
2684;SDS011;1352;48.446;9.156;2022-09-13T14:07:13;2.03;;;1.83;;
2684;SDS011;1352;48.446;9.156;2022-09-13T14:10:03;1.77;;;1.67;;
2684;SDS011;1352;48.446;9.156;2022-09-13T14:12:40;2.20;;;2.00;;
2684;SDS011;1352;48.446;9.156;2022-09-13T14:15:24;3.50;;;2.20;;
2684;SDS011;1352;48.446;9.156;2022-09-13T14:18:18;3.70;;;2.13;;
2684;SDS011;1352;48.446;9.156;2022-09-13T14:21:01;2.10;;;2.00;;
2684;SDS011;1352;48.446;9.156;2022-09-13T14:23:30;2.63;;;2.40;;
2684;SDS011;1352;48.446;9.156;2022-09-13T14:25:59;3.23;;;2.27;;
2684;SDS011;1352;48.446;9.156;2022-09-13T14:28:27;2.53;;;2.33;;
2684;SDS011;1352;48.446;9.156;2022-09-13T14:30:56;3.00;;;2.30;;
2684;SDS011;1352;48.446;9.156;2022-09-13T14:33:25;2.33;;;2.13;;
2684;SDS011;1352;48.446;9.156;2022-09-13T14:35:57;2.30;;;1.80;;
2684;SDS011;1352;48.446;9.156;2022-09-13T14:38:27;3.33;;;2.00;;
2684;SDS011;1352;48.446;9.156;2022-09-13T14:40:58;4.90;;;2.30;;
2684;SDS011;1352;48.446;9.156;2022-09-13T14:43:27;3.37;;;2.47;;
2684;SDS011;1352;48.446;9.156;2022-09-13T14:45:58;2.83;;;2.40;;
2684;SDS011;1352;48.446;9.156;2022-09-13T14:48:31;2.80;;;1.70;;
2684;SDS011;1352;48.446;9.156;2022-09-13T14:51:06;9.33;;;2.47;;
2684;SDS011;1352;48.446;9.156;2022-09-13T14:53:39;2.20;;;2.10;;
2684;SDS011;1352;48.446;9.156;2022-09-13T14:56:12;4.00;;;2.90;;
2684;SDS011;1352;48.446;9.156;2022-09-13T14:58:44;5.17;;;3.43;;
2684;SDS011;1352;48.446;9.156;2022-09-13T15:01:16;2.97;;;2.80;;
2684;SDS011;1352;48.446;9.156;2022-09-13T15:03:47;3.70;;;2.70;;
2684;SDS011;1352;48.446;9.156;2022-09-13T15:06:20;2.57;;;2.37;;
2684;SDS011;1352;48.446;9.156;2022-09-13T15:08:49;3.70;;;3.40;;
2684;SDS011;1352;48.446;9.156;2022-09-13T15:11:30;3.70;;;3.40;;
2684;SDS011;1352;48.446;9.156;2022-09-13T15:14:00;4.90;;;2.60;;
2684;SDS011;1352;48.446;9.156;2022-09-13T15:16:47;2.47;;;2.10;;
2684;SDS011;1352;48.446;9.156;2022-09-13T15:19:16;2.07;;;1.90;;
2684;SDS011;1352;48.446;9.156;2022-09-13T15:21:53;2.20;;;2.00;;
2684;SDS011;1352;48.446;9.156;2022-09-13T15:24:32;3.37;;;1.80;;
2684;SDS011;1352;48.446;9.156;2022-09-13T15:27:00;3.27;;;2.10;;
2684;SDS011;1352;48.446;9.156;2022-09-13T15:29:29;6.00;;;2.80;;
2684;SDS011;1352;48.446;9.156;2022-09-13T15:32:00;2.10;;;1.90;;
2684;SDS011;1352;48.446;9.156;2022-09-13T15:34:28;4.20;;;2.00;;
2684;SDS011;1352;48.446;9.156;2022-09-13T15:37:07;4.40;;;1.77;;
2684;SDS011;1352;48.446;9.156;2022-09-13T15:39:43;4.30;;;2.03;;
2684;SDS011;1352;48.446;9.156;2022-09-13T15:42:11;5.80;;;2.10;;
2684;SDS011;1352;48.446;9.156;2022-09-13T15:44:39;3.47;;;1.70;;
2684;SDS011;1352;48.446;9.156;2022-09-13T15:47:08;1.93;;;1.83;;
2684;SDS011;1352;48.446;9.156;2022-09-13T15:49:45;4.00;;;1.60;;
2684;SDS011;1352;48.446;9.156;2022-09-13T15:52:14;1.90;;;1.80;;
2684;SDS011;1352;48.446;9.156;2022-09-13T15:54:42;2.93;;;1.90;;
2684;SDS011;1352;48.446;9.156;2022-09-13T15:57:15;1.90;;;1.70;;
2684;SDS011;1352;48.446;9.156;2022-09-13T15:59:45;2.53;;;1.90;;
2684;SDS011;1352;48.446;9.156;2022-09-13T16:02:16;2.43;;;2.23;;
2684;SDS011;1352;48.446;9.156;2022-09-13T16:04:45;2.13;;;1.90;;
2684;SDS011;1352;48.446;9.156;2022-09-13T16:07:12;3.33;;;2.30;;
2684;SDS011;1352;48.446;9.156;2022-09-13T16:09:39;5.43;;;2.00;;
2684;SDS011;1352;48.446;9.156;2022-09-13T16:12:06;2.53;;;2.37;;
2684;SDS011;1352;48.446;9.156;2022-09-13T16:14:34;2.10;;;1.97;;
2684;SDS011;1352;48.446;9.156;2022-09-13T16:17:02;2.40;;;2.00;;
2684;SDS011;1352;48.446;9.156;2022-09-13T16:19:33;2.20;;;2.10;;
2684;SDS011;1352;48.446;9.156;2022-09-13T16:22:00;3.20;;;2.20;;
2684;SDS011;1352;48.446;9.156;2022-09-13T16:24:28;4.60;;;3.03;;
2684;SDS011;1352;48.446;9.156;2022-09-13T16:26:58;2.83;;;2.50;;
2684;SDS011;1352;48.446;9.156;2022-09-13T16:29:25;2.47;;;2.10;;
2684;SDS011;1352;48.446;9.156;2022-09-13T16:31:53;2.20;;;2.10;;